createdAt,value
2022-09-28T00:01:09.095Z,81.05
2022-09-28T00:03:35.916Z,80.86
2022-09-28T00:06:03.807Z,80.85
2022-09-28T00:08:30.712Z,81.32
2022-09-28T00:10:57.779Z,81.54
2022-09-28T00:13:25.669Z,81.42
2022-09-28T00:16:03.956Z,81.24
2022-09-28T00:18:30.964Z,81.33
2022-09-28T00:21:02.248Z,80.88
2022-09-28T00:23:28.906Z,80.94
2022-09-28T00:25:55.423Z,81.24
2022-09-28T00:28:22.080Z,81.18
2022-09-28T00:30:55.059Z,81.51
2022-09-28T00:33:21.559Z,81.54
2022-09-28T00:35:55.150Z,81.74
2022-09-28T00:38:21.701Z,81.65
2022-09-28T00:40:48.351Z,81.87
2022-09-28T00:43:18.827Z,81.60
2022-09-28T00:45:49.914Z,81.46
2022-09-28T00:48:17.753Z,81.67
2022-09-28T00:50:45.370Z,81.77
2022-09-28T00:53:18.826Z,81.71
2022-09-28T00:55:48.115Z,81.55
2022-09-28T00:58:20.583Z,81.73
2022-09-28T01:00:48.231Z,81.38
2022-09-28T01:03:16.064Z,81.90
2022-09-28T01:05:45.109Z,81.53
2022-09-28T01:08:13.074Z,81.54
2022-09-28T01:10:40.644Z,81.30
2022-09-28T01:13:07.247Z,81.18
2022-09-28T01:15:41.530Z,81.71
2022-09-28T01:18:15.349Z,81.49
2022-09-28T01:21:03.074Z,81.58
2022-09-28T01:23:43.165Z,81.41
2022-09-28T01:26:45.667Z,81.83
2022-09-28T01:29:19.503Z,81.67
2022-09-28T01:31:51.156Z,81.52
2022-09-28T01:34:25.076Z,81.55
2022-09-28T01:36:55.871Z,81.27
2022-09-28T01:39:29.122Z,81.30
2022-09-28T01:41:59.841Z,81.34
2022-09-28T01:44:30.723Z,80.93
2022-09-28T01:46:59.151Z,81.50
2022-09-28T01:49:31.288Z,81.28
2022-09-28T01:52:04.018Z,81.60
2022-09-28T01:54:36.297Z,81.91
2022-09-28T01:57:09.318Z,81.66
2022-09-28T01:59:41.736Z,81.27
2022-09-28T02:02:14.442Z,81.18
2022-09-28T02:04:46.009Z,80.83
2022-09-28T02:07:18.257Z,81.17
2022-09-28T02:09:49.466Z,81.34
2022-09-28T02:12:21.042Z,81.17
2022-09-28T02:14:54.583Z,81.27
2022-09-28T02:17:20.946Z,81.00
2022-09-28T02:19:47.860Z,81.35
2022-09-28T02:22:24.683Z,81.50
2022-09-28T02:24:55.374Z,81.56
2022-09-28T02:27:29.206Z,81.55
2022-09-28T02:29:57.110Z,81.41
2022-09-28T02:32:26.438Z,81.71
2022-09-28T02:34:53.121Z,81.29
2022-09-28T02:37:19.634Z,81.08
2022-09-28T02:39:46.149Z,81.31
2022-09-28T02:42:21.243Z,81.21
2022-09-28T02:45:04.746Z,81.62
2022-09-28T02:47:44.404Z,81.49
2022-09-28T02:50:19.750Z,81.75
2022-09-28T02:53:15.971Z,81.45
2022-09-28T02:55:56.168Z,81.30
2022-09-28T02:58:37.849Z,81.62
2022-09-28T03:01:19.621Z,81.16
2022-09-28T03:03:50.718Z,81.09
2022-09-28T03:06:26.624Z,80.76
2022-09-28T03:09:00.328Z,81.10
2022-09-28T03:11:31.029Z,80.97
2022-09-28T03:13:58.332Z,80.79
2022-09-28T03:16:26.405Z,81.08
2022-09-28T03:18:52.928Z,80.53
2022-09-28T03:21:19.439Z,80.88
2022-09-28T03:23:45.961Z,80.65
2022-09-28T03:26:12.457Z,80.82
2022-09-28T03:28:39.521Z,80.95
2022-09-28T03:31:06.823Z,80.61
2022-09-28T03:33:35.030Z,80.44
2022-09-28T03:36:01.836Z,80.78
2022-09-28T03:38:28.393Z,80.41
2022-09-28T03:40:56.114Z,80.75
2022-09-28T03:43:23.552Z,80.26
2022-09-28T03:45:53.986Z,80.16
2022-09-28T03:48:28.706Z,80.40
2022-09-28T03:51:01.177Z,80.20
2022-09-28T03:53:27.918Z,79.80
2022-09-28T03:55:54.518Z,79.97
2022-09-28T03:58:22.340Z,79.31
2022-09-28T04:00:49.390Z,78.98
2022-09-28T04:03:15.933Z,78.54
2022-09-28T04:05:48.726Z,78.24
2022-09-28T04:08:16.551Z,78.47
2022-09-28T04:10:43.339Z,78.46
2022-09-28T04:13:09.929Z,78.75
2022-09-28T04:15:36.461Z,79.19
2022-09-28T04:18:03.063Z,78.93
2022-09-28T04:20:29.629Z,79.00
2022-09-28T04:22:58.012Z,79.32
2022-09-28T04:25:26.010Z,79.20
2022-09-28T04:27:52.526Z,79.05
2022-09-28T04:30:19.146Z,78.95
2022-09-28T04:32:46.184Z,78.76
2022-09-28T04:35:12.746Z,79.08
2022-09-28T04:37:39.254Z,79.61
2022-09-28T04:40:06.760Z,79.56
2022-09-28T04:42:36.396Z,79.68
2022-09-28T04:45:03.076Z,79.95
2022-09-28T04:47:29.617Z,79.93
2022-09-28T04:49:56.470Z,79.93
2022-09-28T04:52:23.090Z,80.12
2022-09-28T04:54:49.648Z,80.14
2022-09-28T04:57:16.312Z,80.12
2022-09-28T04:59:44.826Z,80.40
2022-09-28T05:02:11.526Z,80.98
2022-09-28T05:04:38.181Z,80.93
2022-09-28T05:07:04.681Z,81.29
2022-09-28T05:09:34.925Z,81.25
2022-09-28T05:12:04.398Z,81.39
2022-09-28T05:14:30.920Z,81.18
2022-09-28T05:16:58.985Z,81.51
2022-09-28T05:19:25.559Z,81.73
2022-09-28T05:21:52.143Z,81.69
2022-09-28T05:24:18.694Z,81.89
2022-09-28T05:26:45.254Z,82.17
2022-09-28T05:29:11.791Z,82.17
2022-09-28T05:31:38.335Z,82.25
2022-09-28T05:34:06.625Z,82.42
2022-09-28T05:36:33.337Z,82.26
2022-09-28T05:38:59.960Z,82.03
2022-09-28T05:41:26.532Z,82.37
2022-09-28T05:43:53.039Z,82.50
2022-09-28T05:46:19.579Z,82.32
2022-09-28T05:48:46.150Z,82.35
2022-09-28T05:51:13.966Z,82.61
2022-09-28T05:53:40.572Z,82.89
2022-09-28T05:56:07.097Z,82.86
2022-09-28T05:58:34.007Z,82.77
2022-09-28T06:01:00.665Z,82.77
2022-09-28T06:03:27.388Z,83.03
2022-09-28T06:05:54.216Z,82.99
2022-09-28T06:08:22.377Z,83.01
2022-09-28T06:10:48.903Z,82.92
2022-09-28T06:13:15.482Z,83.00
2022-09-28T06:15:42.549Z,82.94
2022-09-28T06:18:11.431Z,83.60
2022-09-28T06:20:39.535Z,83.06
2022-09-28T06:23:06.365Z,82.56
2022-09-28T06:25:34.383Z,82.92
2022-09-28T06:28:03.269Z,83.17
2022-09-28T06:30:32.518Z,82.88
2022-09-28T06:33:01.137Z,82.49
2022-09-28T06:35:29.784Z,82.76
2022-09-28T06:37:57.105Z,82.03
2022-09-28T06:40:24.153Z,82.22
2022-09-28T06:42:59.861Z,81.94
2022-09-28T06:45:28.050Z,81.82
2022-09-28T06:47:56.202Z,81.67
2022-09-28T06:50:22.771Z,81.33
2022-09-28T06:52:53.122Z,81.46
2022-09-28T06:55:20.032Z,81.88
2022-09-28T06:57:47.053Z,80.46
2022-09-28T07:00:15.752Z,81.02
2022-09-28T07:02:42.330Z,79.50
2022-09-28T07:05:12.638Z,80.19
2022-09-28T07:07:39.099Z,78.90
2022-09-28T07:10:06.649Z,78.47
2022-09-28T07:12:35.062Z,77.75
2022-09-28T07:15:01.632Z,77.66
2022-09-28T07:17:29.560Z,77.00
2022-09-28T07:19:56.445Z,76.99
2022-09-28T07:22:35.975Z,76.30
2022-09-28T07:25:04.963Z,77.04
2022-09-28T07:27:31.943Z,77.23
2022-09-28T07:29:58.718Z,76.88
2022-09-28T07:32:26.985Z,77.07
2022-09-28T07:34:58.783Z,76.87
2022-09-28T07:37:25.815Z,77.13
2022-09-28T07:39:52.331Z,77.11
2022-09-28T07:42:19.048Z,77.30
2022-09-28T07:44:45.527Z,77.15
2022-09-28T07:47:12.251Z,77.47
2022-09-28T07:49:38.763Z,77.91
2022-09-28T07:52:06.600Z,77.87
2022-09-28T07:54:33.099Z,77.94
2022-09-28T07:56:59.638Z,78.26
2022-09-28T07:59:26.158Z,78.67
2022-09-28T08:01:52.815Z,79.07
2022-09-28T08:04:19.481Z,78.93
2022-09-28T08:06:46.151Z,78.88
2022-09-28T08:09:14.050Z,79.23
2022-09-28T08:11:40.922Z,79.32
2022-09-28T08:14:07.422Z,78.98
2022-09-28T08:16:34.044Z,78.65
2022-09-28T08:19:00.701Z,78.42
2022-09-28T08:21:27.256Z,78.44
2022-09-28T08:23:53.777Z,78.12
2022-09-28T08:26:21.804Z,77.80
2022-09-28T08:28:48.774Z,77.25
2022-09-28T08:31:15.613Z,77.33
2022-09-28T08:33:42.552Z,78.09
2022-09-28T08:36:10.022Z,78.25
2022-09-28T08:38:36.520Z,78.14
2022-09-28T08:41:11.557Z,77.42
2022-09-28T08:43:54.690Z,76.67
2022-09-28T08:46:27.014Z,76.37
2022-09-28T08:49:23.631Z,76.75
2022-09-28T08:51:51.094Z,76.33
2022-09-28T08:54:30.450Z,74.93
2022-09-28T08:57:01.859Z,74.64
2022-09-28T08:59:46.575Z,75.42
2022-09-28T09:02:18.287Z,74.17
2022-09-28T09:04:45.059Z,74.19
2022-09-28T09:07:48.895Z,74.26
2022-09-28T09:10:35.744Z,73.22
2022-09-28T09:13:18.367Z,72.36
2022-09-28T09:15:53.525Z,71.44
2022-09-28T09:18:31.260Z,71.14
2022-09-28T09:20:59.215Z,71.31
2022-09-28T09:23:35.806Z,70.50
2022-09-28T09:26:09.875Z,70.34
2022-09-28T09:28:52.483Z,70.59
2022-09-28T09:31:31.314Z,68.51
2022-09-28T09:34:12.182Z,68.28
2022-09-28T09:36:50.925Z,68.75
2022-09-28T09:39:32.635Z,67.48
2022-09-28T09:42:14.946Z,67.99
2022-09-28T09:44:55.849Z,67.68
2022-09-28T09:47:28.777Z,67.02
2022-09-28T09:50:02.868Z,66.41
2022-09-28T09:52:41.067Z,65.42
2022-09-28T09:55:16.426Z,65.60
2022-09-28T09:57:48.432Z,66.52
2022-09-28T10:00:16.576Z,65.62
2022-09-28T10:02:47.291Z,64.41
2022-09-28T10:05:22.346Z,64.50
2022-09-28T10:07:55.673Z,63.41
2022-09-28T10:10:27.371Z,64.13
2022-09-28T10:12:54.516Z,62.74
2022-09-28T10:15:24.587Z,63.19
2022-09-28T10:17:53.943Z,62.95
2022-09-28T10:20:20.641Z,63.74
2022-09-28T10:22:47.899Z,63.19
2022-09-28T10:25:15.644Z,63.15
2022-09-28T10:27:45.076Z,62.85
2022-09-28T10:30:16.834Z,61.81
2022-09-28T10:32:45.662Z,62.43
2022-09-28T10:35:21.601Z,62.61
2022-09-28T10:37:51.865Z,62.65
2022-09-28T10:40:42.017Z,61.76
2022-09-28T10:43:23.856Z,61.32
2022-09-28T10:46:01.286Z,61.88
2022-09-28T10:48:30.942Z,61.44
2022-09-28T10:51:00.628Z,61.13
2022-09-28T10:53:27.150Z,60.44
2022-09-28T10:55:59.901Z,59.39
2022-09-28T10:58:29.439Z,59.62
2022-09-28T11:01:07.679Z,60.69
2022-09-28T11:03:38.283Z,60.63
2022-09-28T11:06:08.022Z,59.33
2022-09-28T11:08:38.187Z,58.80
2022-09-28T11:11:08.723Z,59.62
2022-09-28T11:13:46.828Z,58.75
2022-09-28T11:16:23.385Z,58.80
2022-09-28T11:18:50.210Z,58.68
2022-09-28T11:21:25.347Z,58.33
2022-09-28T11:23:57.099Z,58.96
2022-09-28T11:26:24.241Z,59.45
2022-09-28T11:28:52.187Z,59.60
2022-09-28T11:31:26.128Z,60.01
2022-09-28T11:34:03.676Z,60.48
2022-09-28T11:36:57.324Z,59.29
2022-09-28T11:39:33.215Z,59.29
2022-09-28T11:42:17.135Z,60.24
2022-09-28T11:44:46.095Z,60.00
2022-09-28T11:47:40.756Z,59.92
2022-09-28T11:50:21.453Z,60.66
2022-09-28T11:52:57.462Z,60.44
2022-09-28T11:55:27.170Z,60.08
2022-09-28T11:58:00.915Z,59.96
2022-09-28T12:00:28.710Z,60.36
2022-09-28T12:02:59.270Z,59.14
2022-09-28T12:05:30.009Z,60.06
2022-09-28T12:08:02.191Z,60.97
2022-09-28T12:10:38.767Z,59.74
2022-09-28T12:13:11.816Z,60.71
2022-09-28T12:16:15.030Z,61.41
2022-09-28T12:18:41.663Z,60.61
2022-09-28T12:21:19.014Z,60.54
2022-09-28T12:23:48.581Z,59.45
2022-09-28T12:26:34.645Z,60.14
2022-09-28T12:29:11.412Z,61.25
2022-09-28T12:31:44.494Z,61.21
2022-09-28T12:34:11.074Z,61.06
2022-09-28T12:36:52.741Z,60.59
2022-09-28T12:39:56.404Z,61.12
2022-09-28T12:42:33.319Z,60.81
2022-09-28T12:45:17.293Z,61.10
2022-09-28T12:48:10.281Z,61.15
2022-09-28T12:50:54.538Z,61.15
2022-09-28T12:53:39.899Z,60.76
2022-09-28T12:56:16.812Z,61.01
2022-09-28T12:58:57.657Z,60.69
2022-09-28T13:01:44.776Z,60.77
2022-09-28T13:04:33.171Z,60.64
2022-09-28T13:07:04.998Z,60.38
2022-09-28T13:09:45.650Z,62.07
2022-09-28T13:12:26.242Z,61.18
2022-09-28T13:15:29.257Z,61.01
2022-09-28T13:18:03.393Z,61.02
2022-09-28T13:20:41.457Z,60.82
2022-09-28T13:23:21.477Z,61.23
2022-09-28T13:25:55.116Z,60.61
2022-09-28T13:28:27.312Z,61.28
2022-09-28T13:30:55.663Z,60.83
2022-09-28T13:33:30.571Z,61.14
2022-09-28T13:35:57.260Z,60.41
2022-09-28T13:38:43.455Z,59.86
2022-09-28T13:41:13.664Z,59.55
2022-09-28T13:43:55.802Z,57.97
2022-09-28T13:46:30.004Z,59.20
2022-09-28T13:49:05.964Z,58.95
2022-09-28T13:51:45.545Z,58.20
2022-09-28T13:54:20.615Z,58.29
2022-09-28T13:56:53.496Z,56.75
2022-09-28T13:59:24.830Z,58.43
2022-09-28T14:01:56.432Z,57.55
2022-09-28T14:04:24.974Z,57.78
2022-09-28T14:06:55.791Z,57.44
2022-09-28T14:09:44.370Z,57.19
2022-09-28T14:12:44.923Z,57.41
2022-09-28T14:15:41.679Z,57.66
2022-09-28T14:18:22.133Z,57.13
2022-09-28T14:21:00.147Z,57.60
2022-09-28T14:23:59.012Z,58.01
2022-09-28T14:26:53.317Z,58.64
2022-09-28T14:29:26.686Z,58.86
2022-09-28T14:31:55.805Z,59.17
2022-09-28T14:34:31.716Z,59.00
2022-09-28T14:36:59.494Z,60.32
2022-09-28T14:39:29.246Z,59.06
2022-09-28T14:41:56.192Z,60.37
2022-09-28T14:44:23.182Z,59.91
2022-09-28T14:47:10.036Z,59.20
2022-09-28T14:49:46.706Z,59.78
2022-09-28T14:52:19.241Z,59.71
2022-09-28T14:54:51.433Z,60.18
2022-09-28T14:57:21.747Z,60.18
2022-09-28T14:59:48.802Z,59.92
2022-09-28T15:02:36.032Z,60.37
2022-09-28T15:05:14.532Z,60.21
2022-09-28T15:07:45.897Z,59.73
2022-09-28T15:10:27.669Z,59.23
2022-09-28T15:12:55.287Z,60.34
2022-09-28T15:15:30.547Z,60.37
2022-09-28T15:18:09.115Z,60.91
2022-09-28T15:20:40.886Z,61.40
2022-09-28T15:23:24.738Z,62.09
2022-09-28T15:25:52.182Z,62.20
2022-09-28T15:28:20.635Z,62.53
2022-09-28T15:30:47.209Z,62.96
2022-09-28T15:33:24.872Z,63.64
2022-09-28T15:35:58.747Z,63.59
2022-09-28T15:38:25.540Z,64.24
2022-09-28T15:40:52.201Z,64.24
2022-09-28T15:43:25.283Z,64.15
2022-09-28T15:45:57.693Z,64.53
2022-09-28T15:48:30.015Z,65.10
2022-09-28T15:53:58.822Z,65.64
2022-09-28T15:56:26.015Z,65.08
2022-09-28T15:59:09.846Z,65.51
2022-09-28T16:01:37.695Z,65.48
2022-09-28T16:04:36.976Z,66.20
2022-09-28T16:07:25.146Z,65.96
2022-09-28T16:10:04.964Z,65.86
2022-09-28T16:12:41.872Z,66.25
2022-09-28T16:15:15.495Z,66.48
2022-09-28T16:17:42.320Z,66.79
2022-09-28T16:20:22.966Z,66.89
2022-09-28T16:22:50.922Z,66.80
2022-09-28T16:25:19.284Z,66.89
2022-09-28T16:27:46.208Z,67.33
2022-09-28T16:30:16.617Z,67.86
2022-09-28T16:32:51.458Z,67.96
2022-09-28T16:35:24.732Z,68.15
2022-09-28T16:38:01.777Z,68.04
2022-09-28T16:40:28.626Z,67.85
2022-09-28T16:42:59.598Z,67.97
2022-09-28T16:45:26.397Z,68.12
2022-09-28T16:47:56.371Z,68.08
2022-09-28T16:50:24.047Z,68.66
2022-09-28T16:53:00.203Z,68.86
2022-09-28T16:55:40.206Z,68.81
2022-09-28T16:58:07.889Z,69.43
2022-09-28T17:00:34.413Z,69.78
2022-09-28T17:03:01.025Z,70.10
2022-09-28T17:05:27.600Z,70.02
2022-09-28T17:08:01.870Z,70.20
2022-09-28T17:10:45.093Z,70.51
2022-09-28T17:13:20.953Z,70.15
2022-09-28T17:15:47.788Z,70.30
2022-09-28T17:18:14.397Z,70.99
2022-09-28T17:20:43.933Z,71.14
2022-09-28T17:23:11.776Z,71.26
2022-09-28T17:25:38.571Z,71.08
2022-09-28T17:28:05.566Z,71.58
2022-09-28T17:30:32.226Z,71.64
2022-09-28T17:32:58.699Z,72.07
2022-09-28T17:35:25.923Z,71.82
2022-09-28T17:37:52.826Z,72.35
2022-09-28T17:40:23.049Z,72.53
2022-09-28T17:42:49.638Z,72.34
2022-09-28T17:45:16.691Z,72.51
2022-09-28T17:47:44.193Z,72.76
2022-09-28T17:50:19.397Z,72.85
2022-09-28T17:52:45.891Z,73.06
2022-09-28T17:55:12.505Z,73.18
2022-09-28T17:57:40.342Z,73.19
2022-09-28T18:00:09.000Z,73.11
2022-09-28T18:02:35.527Z,73.28
2022-09-28T18:05:02.049Z,73.59
2022-09-28T18:07:28.541Z,73.71
2022-09-28T18:09:55.086Z,74.00
2022-09-28T18:12:21.643Z,73.95
2022-09-28T18:14:49.461Z,73.69
2022-09-28T18:17:16.620Z,73.87
2022-09-28T18:19:43.213Z,73.88
2022-09-28T18:22:10.017Z,73.71
2022-09-28T18:24:36.523Z,73.78
2022-09-28T18:27:03.049Z,74.07
2022-09-28T18:29:33.081Z,73.99
2022-09-28T18:32:02.198Z,74.22
2022-09-28T18:34:28.748Z,74.62
2022-09-28T18:36:55.354Z,74.58
2022-09-28T18:39:22.171Z,74.46
2022-09-28T18:41:48.790Z,74.43
2022-09-28T18:44:15.422Z,74.50
2022-09-28T18:46:42.352Z,74.32
2022-09-28T18:49:10.559Z,74.34
2022-09-28T18:51:37.169Z,74.26
2022-09-28T18:54:04.097Z,74.68
2022-09-28T18:56:30.827Z,74.74
2022-09-28T18:58:57.782Z,75.07
2022-09-28T19:01:32.111Z,75.09
2022-09-28T19:03:59.816Z,74.89
2022-09-28T19:06:28.101Z,75.13
2022-09-28T19:08:55.390Z,75.14
2022-09-28T19:11:22.817Z,75.65
2022-09-28T19:13:49.584Z,75.35
2022-09-28T19:16:20.560Z,75.74
2022-09-28T19:18:48.165Z,75.77
2022-09-28T19:21:16.036Z,75.99
2022-09-28T19:23:49.039Z,76.10
2022-09-28T19:26:17.244Z,76.13
2022-09-28T19:28:43.893Z,76.01
2022-09-28T19:31:11.296Z,76.24
2022-09-28T19:33:38.889Z,76.39
2022-09-28T19:36:07.486Z,76.62
2022-09-28T19:38:36.445Z,76.42
2022-09-28T19:41:08.620Z,76.93
2022-09-28T19:43:35.148Z,76.74
2022-09-28T19:46:03.868Z,76.79
2022-09-28T19:48:31.772Z,76.80
2022-09-28T19:51:00.255Z,77.16
2022-09-28T19:53:28.171Z,77.02
2022-09-28T19:55:56.662Z,76.54
2022-09-28T19:58:30.300Z,76.83
2022-09-28T20:00:57.089Z,76.76
2022-09-28T20:03:24.085Z,76.86
2022-09-28T20:05:56.492Z,77.38
2022-09-28T20:08:23.413Z,77.17
2022-09-28T20:10:50.565Z,77.24
2022-09-28T20:13:17.054Z,77.16
2022-09-28T20:15:47.059Z,77.42
2022-09-28T20:18:14.485Z,77.33
2022-09-28T20:20:41.506Z,77.81
2022-09-28T20:23:08.550Z,77.84
2022-09-28T20:25:35.098Z,78.07
2022-09-28T20:28:01.896Z,77.83
2022-09-28T20:30:28.400Z,78.08
2022-09-28T20:32:56.683Z,77.79
2022-09-28T20:35:32.588Z,77.73
2022-09-28T20:37:59.776Z,77.78
2022-09-28T20:40:26.274Z,77.69
2022-09-28T20:42:52.814Z,77.73
2022-09-28T20:45:19.323Z,77.76
2022-09-28T20:47:45.831Z,77.84
2022-09-28T20:50:13.921Z,77.87
2022-09-28T20:52:40.399Z,77.72
2022-09-28T20:55:07.758Z,77.88
2022-09-28T20:57:34.215Z,78.06
2022-09-28T21:00:01.237Z,78.12
2022-09-28T21:02:27.792Z,78.38
2022-09-28T21:04:54.489Z,78.54
2022-09-28T21:07:22.379Z,79.06
2022-09-28T21:09:48.921Z,78.97
2022-09-28T21:12:15.588Z,79.11
2022-09-28T21:14:42.058Z,78.89
2022-09-28T21:17:08.582Z,78.93
2022-09-28T21:19:35.154Z,78.95
2022-09-28T21:22:01.696Z,79.15
2022-09-28T21:24:29.468Z,79.11
2022-09-28T21:26:56.143Z,79.23
2022-09-28T21:29:22.650Z,79.19
2022-09-28T21:31:49.172Z,78.98
2022-09-28T21:34:17.346Z,78.94
2022-09-28T21:36:43.918Z,79.07
2022-09-28T21:39:10.784Z,79.28
2022-09-28T21:41:39.284Z,79.29
2022-09-28T21:44:06.485Z,79.31
2022-09-28T21:46:33.005Z,79.26
2022-09-28T21:49:00.076Z,79.54
2022-09-28T21:51:27.078Z,79.63
2022-09-28T21:53:53.769Z,79.51
2022-09-28T21:56:20.561Z,79.69
2022-09-28T21:58:49.491Z,79.51
2022-09-28T22:01:17.721Z,79.66
2022-09-28T22:03:46.089Z,79.46
2022-09-28T22:06:12.760Z,79.39
2022-09-28T22:08:39.339Z,79.64
2022-09-28T22:11:08.438Z,79.46
2022-09-28T22:13:36.775Z,79.89
2022-09-28T22:16:04.964Z,79.60
2022-09-28T22:18:32.218Z,79.43
2022-09-28T22:20:59.334Z,79.56
2022-09-28T22:23:26.008Z,79.94
2022-09-28T22:25:57.922Z,79.69
2022-09-28T22:28:24.502Z,79.84
2022-09-28T22:30:50.994Z,80.01
2022-09-28T22:33:18.915Z,79.92
2022-09-28T22:35:45.508Z,79.87
2022-09-28T22:38:12.050Z,79.79
2022-09-28T22:40:42.079Z,79.91
2022-09-28T22:43:08.650Z,79.90
2022-09-28T22:45:35.099Z,80.01
2022-09-28T22:48:01.919Z,79.87
2022-09-28T22:50:29.813Z,80.13
2022-09-28T22:52:56.350Z,80.02
2022-09-28T22:55:22.931Z,79.93
2022-09-28T22:57:49.433Z,79.92
2022-09-28T23:00:16.150Z,80.03
2022-09-28T23:02:42.704Z,80.17
2022-09-28T23:05:09.208Z,80.07
2022-09-28T23:07:37.163Z,80.41
2022-09-28T23:10:04.094Z,80.39
2022-09-28T23:12:30.831Z,80.14
2022-09-28T23:14:57.323Z,80.07
2022-09-28T23:17:23.945Z,79.87
2022-09-28T23:19:50.503Z,79.95
2022-09-28T23:22:17.118Z,80.02
2022-09-28T23:24:45.023Z,80.09
2022-09-28T23:27:11.514Z,79.94
2022-09-28T23:29:38.215Z,79.82
2022-09-28T23:32:04.773Z,80.48
2022-09-28T23:34:31.296Z,80.42
2022-09-28T23:36:57.821Z,80.20
2022-09-28T23:39:24.445Z,80.55
2022-09-28T23:41:52.330Z,80.38
2022-09-28T23:44:18.852Z,80.53
2022-09-28T23:46:45.365Z,80.38
2022-09-28T23:49:11.898Z,80.54
2022-09-28T23:51:38.425Z,80.74
2022-09-28T23:54:05.310Z,80.69
2022-09-28T23:56:32.223Z,80.73
2022-09-28T23:59:00.051Z,80.37
